Time,TemperatureF,DewpointF,PressureIn,WindDirection,WindDirectionDegrees,WindSpeedMPH,WindSpeedGustMPH,Humidity,HourlyPrecipIn,Conditions,Clouds,dailyrainin,SoftwareType,DateUTC
2013-05-02 00:01:00,56.4,2.6,30.34,ENE,68,0.0,0.0,11,0.00,,-RA,0.00,VWS V14.01,2013-05-02 04:01:00,
2013-05-02 00:06:00,56.3,0.4,30.34,NE,48,1.0,2.0,10,0.00,,-RA,0.00,VWS V14.01,2013-05-02 04:06:00,
2013-05-02 00:12:00,56.2,0.4,30.34,SSE,150,0.0,2.0,10,0.00,,-RA,0.00,VWS V14.01,2013-05-02 04:12:00,
2013-05-02 00:17:00,56.1,0.3,30.34,NE,49,1.0,2.0,10,0.00,,-RA,0.00,VWS V14.01,2013-05-02 04:17:00,
2013-05-02 00:22:00,56.1,-2.0,30.34,ESE,110,0.0,2.0,9,0.00,,-RA,0.00,VWS V14.01,2013-05-02 04:22:00,
2013-05-02 00:27:00,56.0,-2.0,30.34,ESE,106,0.0,2.0,9,0.00,,-RA,0.00,VWS V14.01,2013-05-02 04:27:00,
2013-05-02 00:32:00,56.0,-2.0,30.34,ESE,106,0.0,1.0,9,0.00,,-RA,0.00,VWS V14.01,2013-05-02 04:32:00,
2013-05-02 00:37:00,55.9,-4.6,30.34,NE,39,0.0,2.0,8,0.00,,-RA,0.00,VWS V14.01,2013-05-02 04:37:00,
2013-05-02 00:42:00,55.9,-4.6,30.34,NE,40,0.0,2.0,8,0.00,,-RA,0.00,VWS V14.01,2013-05-02 04:42:00,
2013-05-02 00:47:00,55.9,-4.6,30.33,ENE,61,0.0,2.0,8,0.00,,-RA,0.00,VWS V14.01,2013-05-02 04:47:00,
2013-05-02 00:52:00,55.8,-4.6,30.33,ESE,122,0.0,2.0,8,0.00,,-RA,0.00,VWS V14.01,2013-05-02 04:52:00,
2013-05-02 00:57:00,55.8,-7.4,30.33,ESE,122,0.0,2.0,7,0.00,,-RA,0.00,VWS V14.01,2013-05-02 04:57:00,
2013-05-02 01:02:00,55.8,-7.4,30.33,NNW,338,1.0,1.0,7,0.00,,,0.00,VWS V14.01,2013-05-02 05:02:00,
2013-05-02 01:07:00,55.8,-7.4,30.33,NE,53,1.0,1.0,7,0.00,,,0.00,VWS V14.01,2013-05-02 05:07:00,
2013-05-02 01:12:00,55.7,-7.5,30.33,NE,50,0.0,1.0,7,0.00,,,0.00,VWS V14.01,2013-05-02 05:12:00,
2013-05-02 01:17:00,55.7,-7.5,30.33,NE,49,0.0,1.0,7,0.00,,,0.00,VWS V14.01,2013-05-02 05:17:00,
2013-05-02 01:22:00,55.7,-7.5,30.33,NE,55,0.0,2.0,7,0.00,,,0.00,VWS V14.01,2013-05-02 05:22:00,
2013-05-02 01:27:00,55.7,-7.5,30.33,NE,55,0.0,2.0,7,0.00,,,0.00,VWS V14.01,2013-05-02 05:27:00,
2013-05-02 01:32:00,55.7,-7.5,30.33,North,360,0.0,0.0,7,0.00,,,0.00,VWS V14.01,2013-05-02 05:32:00,
2013-05-02 01:37:00,55.7,-7.5,30.32,ENE,61,0.0,2.0,7,0.00,,,0.00,VWS V14.01,2013-05-02 05:37:00,
2013-05-02 01:42:00,55.7,-7.5,30.32,ENE,65,0.0,2.0,7,0.00,,,0.00,VWS V14.01,2013-05-02 05:42:00,
2013-05-02 01:47:00,55.7,-7.5,30.32,SE,125,0.0,2.0,7,0.00,,,0.00,VWS V14.01,2013-05-02 05:47:00,
2013-05-02 01:52:00,55.7,-7.5,30.32,ENE,69,1.0,2.0,7,0.00,,,0.00,VWS V14.01,2013-05-02 05:52:00,
2013-05-02 01:57:00,55.7,-7.5,30.32,ENE,61,0.0,2.0,7,0.00,,,0.00,VWS V14.01,2013-05-02 05:57:00,
2013-05-02 02:02:00,55.7,-7.5,30.32,NNE,27,0.0,0.0,7,0.00,,OVC010,0.00,VWS V14.01,2013-05-02 06:02:00,
2013-05-02 02:07:00,55.7,-7.5,30.32,WNW,283,1.0,2.0,7,0.00,,OVC010,0.00,VWS V14.01,2013-05-02 06:07:00,
2013-05-02 02:12:00,55.7,-7.5,30.31,WNW,282,0.0,2.0,7,0.00,,OVC010,0.00,VWS V14.01,2013-05-02 06:12:00,
2013-05-02 02:17:00,55.7,-4.7,30.31,East,80,1.0,3.0,8,0.00,,OVC010,0.00,VWS V14.01,2013-05-02 06:17:00,
2013-05-02 02:22:00,55.7,-7.5,30.31,ENE,59,1.0,3.0,7,0.00,,OVC010,0.00,VWS V14.01,2013-05-02 06:22:00,
2013-05-02 02:27:00,55.7,-4.7,30.31,NE,45,0.0,3.0,8,0.00,,OVC010,0.00,VWS V14.01,2013-05-02 06:27:00,
2013-05-02 02:32:00,55.7,-4.7,30.30,NNE,28,0.0,1.0,8,0.00,,OVC010,0.00,VWS V14.01,2013-05-02 06:32:00,
2013-05-02 02:37:00,55.7,-4.7,30.30,NE,51,0.0,3.0,8,0.00,,OVC010,0.00,VWS V14.01,2013-05-02 06:37:00,
2013-05-02 02:42:00,55.7,-4.7,30.30,ENE,68,1.0,4.0,8,0.00,,OVC010,0.00,VWS V14.01,2013-05-02 06:42:00,
2013-05-02 02:47:00,55.7,-4.7,30.30,ENE,63,0.0,4.0,8,0.01,,OVC010,0.01,VWS V14.01,2013-05-02 06:47:00,
2013-05-02 02:52:00,55.7,-4.7,30.30,ENE,59,0.0,4.0,8,0.01,,OVC010,0.01,VWS V14.01,2013-05-02 06:52:00,
2013-05-02 02:57:00,55.6,-4.8,30.30,ENE,57,2.0,4.0,8,0.01,,OVC010,0.01,VWS V14.01,2013-05-02 06:57:00,
2013-05-02 03:02:00,55.5,-4.9,30.30,ENE,70,1.0,3.0,8,0.01,, +RA,0.01,VWS V14.01,2013-05-02 07:02:00,
2013-05-02 03:07:00,55.5,-7.6,30.29,ENE,70,1.0,3.0,7,0.01,, +RA,0.01,VWS V14.01,2013-05-02 07:07:00,
2013-05-02 03:12:00,55.5,-7.6,30.30,SSW,194,0.0,3.0,7,0.01,, +RA,0.01,VWS V14.01,2013-05-02 07:12:00,
2013-05-02 03:17:00,55.4,-7.7,30.29,East,101,0.0,3.0,7,0.02,, +RA,0.02,VWS V14.01,2013-05-02 07:17:00,
2013-05-02 03:22:00,55.4,-7.7,30.29,East,101,0.0,3.0,7,0.04,, +RA,0.04,VWS V14.01,2013-05-02 07:22:00,
2013-05-02 03:27:00,55.3,-10.9,30.29,East,101,0.0,3.0,6,0.05,, +RA,0.05,VWS V14.01,2013-05-02 07:27:00,
2013-05-02 03:32:00,55.3,-10.9,30.29,SE,135,0.0,0.0,6,0.05,, +RA,0.05,VWS V14.01,2013-05-02 07:32:00,
2013-05-02 03:37:00,55.2,-11.0,30.29,SSE,162,0.0,2.0,6,0.05,, +RA,0.05,VWS V14.01,2013-05-02 07:37:00,
2013-05-02 03:42:00,55.1,-11.0,30.29,SSE,162,0.0,2.0,6,0.05,, +RA,0.05,VWS V14.01,2013-05-02 07:42:00,
2013-05-02 03:47:00,55.1,-11.0,30.29,SSE,162,0.0,2.0,6,0.05,, +RA,0.05,VWS V14.01,2013-05-02 07:47:00,
2013-05-02 03:52:00,55.1,-14.7,30.29,SSW,200,1.0,2.0,5,0.05,, +RA,0.05,VWS V14.01,2013-05-02 07:52:00,
2013-05-02 03:57:00,55.1,-14.7,30.29,SSW,200,0.0,2.0,5,0.05,, +RA,0.05,VWS V14.01,2013-05-02 07:57:00,
2013-05-02 04:02:00,55.0,-14.7,30.29,SSW,200,0.0,0.0,5,0.04,,,0.05,VWS V14.01,2013-05-02 08:02:00,
2013-05-02 04:07:00,54.9,-14.8,30.29,ENE,58,0.0,2.0,5,0.04,,,0.05,VWS V14.01,2013-05-02 08:07:00,
2013-05-02 04:12:00,54.8,-14.9,30.29,SSE,150,1.0,2.0,5,0.04,,,0.05,VWS V14.01,2013-05-02 08:12:00,
2013-05-02 04:17:00,54.8,-14.9,30.29,SW,221,0.0,2.0,5,0.04,,,0.05,VWS V14.01,2013-05-02 08:17:00,
2013-05-02 04:22:00,54.8,-14.9,30.29,SE,125,0.0,2.0,5,0.04,,,0.05,VWS V14.01,2013-05-02 08:22:00,
2013-05-02 04:27:00,54.7,-14.9,30.29,South,180,0.0,2.0,5,0.05,,,0.06,VWS V14.01,2013-05-02 08:27:00,
2013-05-02 04:32:00,54.7,-14.9,30.29,North,11,0.0,5.0,5,0.01,,,0.06,VWS V14.01,2013-05-02 08:32:00,
2013-05-02 04:37:00,54.7,-14.9,30.29,ENE,58,0.0,5.0,5,0.01,,,0.06,VWS V14.01,2013-05-02 08:37:00,
2013-05-02 04:42:00,54.6,-15.0,30.29,East,98,0.0,6.0,5,0.01,,,0.06,VWS V14.01,2013-05-02 08:42:00,
2013-05-02 04:47:00,54.5,-15.1,30.29,NE,37,0.0,6.0,5,0.01,,,0.06,VWS V14.01,2013-05-02 08:47:00,
2013-05-02 04:52:00,54.4,-15.2,30.29,SSE,152,0.0,6.0,5,0.03,,,0.08,VWS V14.01,2013-05-02 08:52:00,
2013-05-02 04:57:00,54.3,-19.6,30.29,SE,133,0.0,6.0,4,0.03,,,0.08,VWS V14.01,2013-05-02 08:57:00,
2013-05-02 05:02:00,54.3,-19.6,30.29,East,87,1.0,1.0,4,0.03,,RA,0.08,VWS V14.01,2013-05-02 09:02:00,
2013-05-02 05:07:00,54.1,-19.7,30.29,NE,37,0.0,2.0,4,0.03,,RA,0.08,VWS V14.01,2013-05-02 09:07:00,
2013-05-02 05:12:00,53.9,-15.5,30.29,North,6,1.0,4.0,5,0.03,,RA,0.08,VWS V14.01,2013-05-02 09:12:00,
2013-05-02 05:17:00,53.7,-15.7,30.29,ENE,75,1.0,4.0,5,0.03,,RA,0.08,VWS V14.01,2013-05-02 09:17:00,
2013-05-02 05:22:00,53.6,-15.7,30.29,West,260,0.0,4.0,5,0.04,,RA,0.09,VWS V14.01,2013-05-02 09:22:00,
2013-05-02 05:27:00,53.4,-15.9,30.29,NE,48,0.0,4.0,5,0.04,,RA,0.09,VWS V14.01,2013-05-02 09:27:00,
2013-05-02 05:32:00,53.3,-16.0,30.30,South,170,2.0,2.0,5,0.03,,RA,0.09,VWS V14.01,2013-05-02 09:32:00,
2013-05-02 05:37:00,53.4,-15.9,30.29,SE,145,0.0,2.0,5,0.04,,RA,0.10,VWS V14.01,2013-05-02 09:37:00,
2013-05-02 05:42:00,53.3,-16.0,30.30,SE,138,0.0,2.0,5,0.05,,RA,0.11,VWS V14.01,2013-05-02 09:42:00,
2013-05-02 05:47:00,53.2,-16.0,30.30,NE,53,0.0,2.0,5,0.05,,RA,0.11,VWS V14.01,2013-05-02 09:47:00,
2013-05-02 05:52:00,53.1,-16.1,30.30,NE,54,0.0,2.0,5,0.05,,RA,0.11,VWS V14.01,2013-05-02 09:52:00,
2013-05-02 05:57:00,53.0,-16.2,30.30,South,184,0.0,2.0,5,0.05,,RA,0.11,VWS V14.01,2013-05-02 09:57:00,
2013-05-02 06:02:00,52.9,-16.2,30.30,NE,55,0.0,1.0,5,0.03,,RA,0.11,VWS V14.01,2013-05-02 10:02:00,
2013-05-02 06:07:00,52.8,-16.3,30.30,SW,235,0.0,1.0,5,0.03,,RA,0.11,VWS V14.01,2013-05-02 10:07:00,
2013-05-02 06:12:00,52.7,-16.4,30.30,NW,305,0.0,2.0,5,0.04,,RA,0.12,VWS V14.01,2013-05-02 10:12:00,
2013-05-02 06:17:00,52.6,-16.5,30.30,SE,131,0.0,2.0,5,0.04,,RA,0.12,VWS V14.01,2013-05-02 10:17:00,
2013-05-02 06:22:00,52.5,-16.5,30.30,NE,46,0.0,2.0,5,0.04,,RA,0.12,VWS V14.01,2013-05-02 10:22:00,
2013-05-02 06:27:00,52.4,-16.6,30.30,NNE,14,0.0,2.0,5,0.04,,RA,0.12,VWS V14.01,2013-05-02 10:27:00,
2013-05-02 06:32:00,52.3,-16.7,30.31,NE,53,1.0,2.0,5,0.03,,RA,0.12,VWS V14.01,2013-05-02 10:32:00,
2013-05-02 06:37:00,52.2,-16.8,30.31,NNE,26,1.0,4.0,5,0.03,,RA,0.12,VWS V14.01,2013-05-02 10:37:00,
2013-05-02 06:42:00,52.2,-16.8,30.31,East,80,0.0,4.0,5,0.04,,RA,0.13,VWS V14.01,2013-05-02 10:42:00,
2013-05-02 06:47:00,52.2,-16.8,30.31,NE,45,0.0,4.0,5,0.04,,RA,0.13,VWS V14.01,2013-05-02 10:47:00,
2013-05-02 06:52:00,52.2,-16.8,30.31,NNW,329,0.0,4.0,5,0.05,,RA,0.14,VWS V14.01,2013-05-02 10:52:00,
2013-05-02 06:57:00,52.1,-16.8,30.31,NW,316,0.0,4.0,5,0.05,,RA,0.14,VWS V14.01,2013-05-02 10:57:00,
2013-05-02 07:02:00,52.1,-16.8,30.32,NW,322,0.0,0.0,5,0.03,,,0.14,VWS V14.01,2013-05-02 11:02:00,
2013-05-02 07:07:00,52.1,-21.1,30.32,NW,323,0.0,1.0,4,0.03,,,0.14,VWS V14.01,2013-05-02 11:07:00,
2013-05-02 07:12:00,52.1,-16.8,30.32,NW,323,0.0,1.0,5,0.03,,,0.14,VWS V14.01,2013-05-02 11:12:00,
2013-05-02 07:17:00,52.1,-21.1,30.32,NE,51,0.0,1.0,4,0.03,,,0.14,VWS V14.01,2013-05-02 11:17:00,
2013-05-02 07:22:00,52.1,-21.1,30.32,ENE,63,0.0,1.0,4,0.03,,,0.14,VWS V14.01,2013-05-02 11:22:00,
2013-05-02 07:27:00,52.2,-21.1,30.32,SSW,201,0.0,1.0,4,0.04,,,0.15,VWS V14.01,2013-05-02 11:27:00,
2013-05-02 07:32:00,52.3,-21.0,30.32,ENE,66,0.0,0.0,4,0.03,,,0.15,VWS V14.01,2013-05-02 11:32:00,
2013-05-02 07:37:00,52.3,-21.0,30.32,ENE,65,0.0,1.0,4,0.03,,,0.15,VWS V14.01,2013-05-02 11:37:00,
2013-05-02 07:42:00,52.3,-21.0,30.33,ENE,65,0.0,1.0,4,0.03,,,0.15,VWS V14.01,2013-05-02 11:42:00,
2013-05-02 07:47:00,52.3,-21.0,30.33,ENE,58,1.0,1.0,4,0.03,,,0.15,VWS V14.01,2013-05-02 11:47:00,
2013-05-02 07:52:00,52.3,-21.0,30.33,NE,41,0.0,5.0,4,0.03,,,0.15,VWS V14.01,2013-05-02 11:52:00,
2013-05-02 07:57:00,52.3,-21.0,30.33,NE,41,1.0,5.0,4,0.03,,,0.15,VWS V14.01,2013-05-02 11:57:00,
2013-05-02 08:02:00,52.4,-20.9,30.33,ENE,77,0.0,2.0,4,0.01,,OVC010,0.15,VWS V14.01,2013-05-02 12:02:00,
2013-05-02 08:07:00,52.4,-20.9,30.33,NNE,22,0.0,2.0,4,0.01,,OVC010,0.15,VWS V14.01,2013-05-02 12:07:00,
2013-05-02 08:12:00,52.6,-20.8,30.33,NW,319,1.0,2.0,4,0.01,,OVC010,0.15,VWS V14.01,2013-05-02 12:12:00,
2013-05-02 08:17:00,52.7,-20.7,30.34,North,356,1.0,5.0,4,0.01,,OVC010,0.15,VWS V14.01,2013-05-02 12:17:00,
2013-05-02 08:22:00,52.8,-20.6,30.34,ENE,61,0.0,5.0,4,0.01,,OVC010,0.15,VWS V14.01,2013-05-02 12:22:00,
2013-05-02 08:27:00,52.9,-20.6,30.34,ENE,72,0.0,5.0,4,0.01,,OVC010,0.15,VWS V14.01,2013-05-02 12:27:00,
2013-05-02 08:32:00,52.9,-20.6,30.34,ENE,60,1.0,2.0,4,0.00,,OVC010,0.15,VWS V14.01,2013-05-02 12:32:00,
2013-05-02 08:37:00,52.9,-20.6,30.34,ENE,69,0.0,2.0,4,0.00,,OVC010,0.15,VWS V14.01,2013-05-02 12:37:00,
2013-05-02 08:42:00,53.0,-20.5,30.34,ENE,75,0.0,2.0,4,0.00,,OVC010,0.15,VWS V14.01,2013-05-02 12:42:00,
2013-05-02 08:47:00,53.1,-20.4,30.34,East,83,0.0,2.0,4,0.00,,OVC010,0.15,VWS V14.01,2013-05-02 12:47:00,
2013-05-02 08:52:00,53.2,-25.8,30.34,ENE,73,0.0,2.0,3,0.00,,OVC010,0.15,VWS V14.01,2013-05-02 12:52:00,
2013-05-02 08:57:00,53.3,-25.7,30.34,SSW,198,0.0,2.0,3,0.00,,OVC010,0.15,VWS V14.01,2013-05-02 12:57:00,
2013-05-02 09:02:00,53.3,-25.7,30.34,NE,48,0.0,2.0,3,0.00,,OVC008,0.15,VWS V14.01,2013-05-02 13:02:00,
2013-05-02 09:07:00,53.5,-25.6,30.35,East,79,1.0,2.0,3,0.00,,OVC008,0.15,VWS V14.01,2013-05-02 13:07:00,
2013-05-02 09:12:00,53.6,-25.5,30.35,ENE,68,0.0,2.0,3,0.00,,OVC008,0.15,VWS V14.01,2013-05-02 13:12:00,
2013-05-02 09:17:00,53.7,-25.5,30.35,SW,215,0.0,2.0,3,0.00,,OVC008,0.15,VWS V14.01,2013-05-02 13:17:00,
2013-05-02 09:22:00,53.9,-25.3,30.35,SSE,167,0.0,2.0,3,0.00,,OVC008,0.15,VWS V14.01,2013-05-02 13:22:00,
2013-05-02 09:27:00,53.8,-25.4,30.35,NE,44,0.0,2.0,3,0.00,,OVC008,0.15,VWS V14.01,2013-05-02 13:27:00,
2013-05-02 09:32:00,53.9,-25.3,30.35,NE,44,0.0,1.0,3,0.00,,OVC008,0.15,VWS V14.01,2013-05-02 13:32:00,
2013-05-02 09:37:00,54.1,-25.2,30.35,NE,36,0.0,1.0,3,0.00,,OVC008,0.15,VWS V14.01,2013-05-02 13:37:00,
2013-05-02 09:42:00,54.1,-25.2,30.35,WNW,298,0.0,1.0,3,0.00,,OVC008,0.15,VWS V14.01,2013-05-02 13:42:00,
2013-05-02 09:47:00,54.2,-25.1,30.35,NE,49,0.0,1.0,3,0.00,,OVC008,0.15,VWS V14.01,2013-05-02 13:47:00,
2013-05-02 09:52:00,54.4,-25.0,30.35,North,352,0.0,1.0,3,0.00,,OVC008,0.15,VWS V14.01,2013-05-02 13:52:00,
2013-05-02 09:57:00,54.5,-24.9,30.35,ENE,63,0.0,1.0,3,0.00,,OVC008,0.15,VWS V14.01,2013-05-02 13:57:00,
2013-05-02 10:02:00,54.5,-24.9,30.35,NW,325,0.0,1.0,3,0.00,,OVC010,0.15,VWS V14.01,2013-05-02 14:02:00,
2013-05-02 10:07:00,54.7,-24.8,30.35,NE,51,1.0,1.0,3,0.00,,OVC010,0.15,VWS V14.01,2013-05-02 14:07:00,
2013-05-02 10:12:00,54.8,-24.7,30.35,NE,50,0.0,2.0,3,0.00,,OVC010,0.15,VWS V14.01,2013-05-02 14:12:00,
2013-05-02 10:17:00,55.1,-24.5,30.35,NE,56,1.0,2.0,3,0.00,,OVC010,0.15,VWS V14.01,2013-05-02 14:17:00,
2013-05-02 10:22:00,55.1,-24.5,30.35,NNE,18,0.0,2.0,3,0.00,,OVC010,0.15,VWS V14.01,2013-05-02 14:22:00,
2013-05-02 10:27:00,55.4,-24.3,30.35,NE,38,1.0,2.0,3,0.00,,OVC010,0.15,VWS V14.01,2013-05-02 14:27:00,
2013-05-02 10:32:00,55.5,-24.2,30.35,ENE,60,0.0,2.0,3,0.00,,OVC010,0.15,VWS V14.01,2013-05-02 14:32:00,
2013-05-02 10:37:00,55.8,-24.0,30.35,NE,55,0.0,2.0,3,0.00,,OVC010,0.15,VWS V14.01,2013-05-02 14:37:00,
2013-05-02 10:42:00,55.9,-24.0,30.35,North,9,0.0,2.0,3,0.00,,OVC010,0.15,VWS V14.01,2013-05-02 14:42:00,
2013-05-02 10:47:00,55.9,-18.5,30.35,ENE,65,0.0,3.0,4,0.00,,OVC010,0.15,VWS V14.01,2013-05-02 14:47:00,
2013-05-02 10:52:00,56.0,-18.4,30.35,West,276,0.0,3.0,4,0.00,,OVC010,0.15,VWS V14.01,2013-05-02 14:52:00,
2013-05-02 10:57:00,56.2,-18.2,30.35,ENE,61,0.0,3.0,4,0.00,,OVC010,0.15,VWS V14.01,2013-05-02 14:57:00,
2013-05-02 11:02:00,56.3,-13.8,30.35,ENE,59,1.0,1.0,5,0.00,,OVC008,0.15,VWS V14.01,2013-05-02 15:02:00,
2013-05-02 11:07:00,56.3,-10.2,30.35,NE,45,0.0,4.0,6,0.00,,OVC008,0.15,VWS V14.01,2013-05-02 15:07:00,
2013-05-02 11:12:00,56.4,-10.1,30.35,NE,49,0.0,4.0,6,0.00,,OVC008,0.15,VWS V14.01,2013-05-02 15:12:00,
2013-05-02 11:18:00,56.5,-6.9,30.35,NE,38,0.0,4.0,7,0.00,,OVC008,0.15,VWS V14.01,2013-05-02 15:18:00,
2013-05-02 11:23:00,56.6,-6.8,30.35,NNE,33,0.0,4.0,7,0.00,,OVC008,0.15,VWS V14.01,2013-05-02 15:23:00,
2013-05-02 11:28:00,56.7,-4.0,30.35,NW,319,0.0,4.0,8,0.00,,OVC008,0.15,VWS V14.01,2013-05-02 15:28:00,
2013-05-02 11:33:00,56.7,0.8,30.35,NNE,23,1.0,2.0,10,0.00,,OVC008,0.15,VWS V14.01,2013-05-02 15:33:00,
2013-05-02 11:38:00,56.8,2.9,30.35,NE,50,1.0,4.0,11,0.00,,OVC008,0.15,VWS V14.01,2013-05-02 15:38:00,
2013-05-02 11:43:00,56.9,4.8,30.35,NE,45,4.0,5.0,12,0.00,,OVC008,0.15,VWS V14.01,2013-05-02 15:43:00,
2013-05-02 11:48:00,56.9,6.6,30.36,NE,41,0.0,5.0,13,0.00,,OVC008,0.15,VWS V14.01,2013-05-02 15:48:00,
2013-05-02 11:53:00,57.1,6.7,30.35,NE,50,1.0,5.0,13,0.00,,OVC008,0.15,VWS V14.01,2013-05-02 15:53:00,
2013-05-02 11:58:00,57.3,6.9,30.36,NE,49,2.0,5.0,13,0.00,,OVC008,0.15,VWS V14.01,2013-05-02 15:58:00,
2013-05-02 12:03:00,57.4,8.6,30.35,NNE,33,0.0,3.0,14,0.00,,OVC008,0.15,VWS V14.01,2013-05-02 16:03:00,
2013-05-02 12:08:00,57.5,8.7,30.35,ENE,60,1.0,3.0,14,0.00,,OVC008,0.15,VWS V14.01,2013-05-02 16:08:00,
2013-05-02 12:13:00,57.4,8.6,30.35,ENE,68,0.0,3.0,14,0.00,,OVC008,0.15,VWS V14.01,2013-05-02 16:13:00,
2013-05-02 12:18:00,57.5,8.7,30.35,NE,36,0.0,3.0,14,0.00,,OVC008,0.15,VWS V14.01,2013-05-02 16:18:00,
2013-05-02 12:23:00,57.4,10.1,30.35,ENE,64,0.0,3.0,15,0.00,,OVC008,0.15,VWS V14.01,2013-05-02 16:23:00,
2013-05-02 12:28:00,57.5,10.2,30.35,ENE,71,0.0,3.0,15,0.00,,OVC008,0.15,VWS V14.01,2013-05-02 16:28:00,
2013-05-02 12:33:00,57.6,8.8,30.35,ENE,68,0.0,0.0,14,0.00,,OVC008,0.15,VWS V14.01,2013-05-02 16:33:00,
2013-05-02 12:38:00,57.5,10.2,30.35,NE,46,1.0,4.0,15,0.00,,OVC008,0.15,VWS V14.01,2013-05-02 16:38:00,
2013-05-02 12:43:00,57.6,10.3,30.35,North,356,1.0,4.0,15,0.00,,OVC008,0.15,VWS V14.01,2013-05-02 16:43:00,
2013-05-02 12:48:00,57.9,9.0,30.35,NE,55,0.0,4.0,14,0.00,,OVC008,0.15,VWS V14.01,2013-05-02 16:48:00,
2013-05-02 12:53:00,58.2,9.2,30.35,ENE,65,1.0,4.0,14,0.00,,OVC008,0.15,VWS V14.01,2013-05-02 16:53:00,
2013-05-02 12:58:00,58.3,12.3,30.35,NE,37,0.0,4.0,16,0.00,,OVC008,0.15,VWS V14.01,2013-05-02 16:58:00,
2013-05-02 13:03:00,58.3,15.0,30.35,West,270,0.0,1.0,18,0.00,,OVC008,0.15,VWS V14.01,2013-05-02 17:03:00,
2013-05-02 13:08:00,58.3,15.0,30.35,WNW,293,1.0,1.0,18,0.00,,OVC008,0.15,VWS V14.01,2013-05-02 17:08:00,
2013-05-02 13:13:00,58.4,17.5,30.34,ENE,65,0.0,3.0,20,0.00,,OVC008,0.15,VWS V14.01,2013-05-02 17:13:00,
2013-05-02 13:18:00,58.8,14.1,30.34,ENE,69,0.0,3.0,17,0.00,,OVC008,0.15,VWS V14.01,2013-05-02 17:18:00,
2013-05-02 13:23:00,58.8,17.8,30.34,NE,44,1.0,3.0,20,0.00,,OVC008,0.15,VWS V14.01,2013-05-02 17:23:00,
2013-05-02 13:28:00,59.1,19.2,30.34,West,260,1.0,3.0,21,0.00,,OVC008,0.15,VWS V14.01,2013-05-02 17:28:00,
2013-05-02 13:33:00,59.4,18.3,30.34,NNW,337,0.0,1.0,20,0.00,,OVC008,0.15,VWS V14.01,2013-05-02 17:33:00,
2013-05-02 13:38:00,59.5,18.4,30.34,NNE,16,1.0,1.0,20,0.00,,OVC008,0.15,VWS V14.01,2013-05-02 17:38:00,
2013-05-02 13:43:00,59.3,20.5,30.34,NW,313,1.0,1.0,22,0.00,,OVC008,0.15,VWS V14.01,2013-05-02 17:43:00,
2013-05-02 13:48:00,59.0,21.3,30.34,East,79,0.0,4.0,23,0.00,,OVC008,0.15,VWS V14.01,2013-05-02 17:48:00,
2013-05-02 13:53:00,59.0,20.2,30.35,NE,55,0.0,4.0,22,0.00,,OVC008,0.15,VWS V14.01,2013-05-02 17:53:00,
2013-05-02 13:58:00,59.0,19.1,30.34,NNW,328,0.0,4.0,21,0.00,,OVC008,0.15,VWS V14.01,2013-05-02 17:58:00,
2013-05-02 14:03:00,59.0,20.2,30.35,NE,39,2.0,3.0,22,0.00,,OVC008,0.15,VWS V14.01,2013-05-02 18:03:00,
2013-05-02 14:08:00,59.1,19.2,30.35,ENE,68,1.0,4.0,21,0.00,,OVC008,0.15,VWS V14.01,2013-05-02 18:08:00,
2013-05-02 14:13:00,59.2,20.4,30.35,NNE,33,1.0,4.0,22,0.00,,OVC008,0.15,VWS V14.01,2013-05-02 18:13:00,
2013-05-02 14:18:00,59.4,20.6,30.34,NNE,28,0.0,4.0,22,0.00,,OVC008,0.15,VWS V14.01,2013-05-02 18:18:00,
2013-05-02 14:23:00,59.7,17.4,30.34,NNE,30,1.0,4.0,19,0.00,,OVC008,0.15,VWS V14.01,2013-05-02 18:23:00,
2013-05-02 14:28:00,59.6,20.7,30.34,NW,309,1.0,4.0,22,0.00,,OVC008,0.15,VWS V14.01,2013-05-02 18:28:00,
2013-05-02 14:33:00,59.5,22.7,30.34,NE,51,2.0,2.0,24,0.00,,OVC008,0.15,VWS V14.01,2013-05-02 18:33:00,
2013-05-02 14:38:00,59.5,21.7,30.34,NE,51,0.0,2.0,23,0.00,,OVC008,0.15,VWS V14.01,2013-05-02 18:38:00,
2013-05-02 14:43:00,59.4,21.6,30.34,North,11,1.0,2.0,23,0.00,,OVC008,0.15,VWS V14.01,2013-05-02 18:43:00,
2013-05-02 14:48:00,59.6,20.7,30.34,ENE,63,0.0,2.0,22,0.00,,OVC008,0.15,VWS V14.01,2013-05-02 18:48:00,
2013-05-02 14:53:00,60.0,21.1,30.33,ENE,61,1.0,2.0,22,0.00,,OVC008,0.15,VWS V14.01,2013-05-02 18:53:00,
2013-05-02 14:58:00,60.4,23.5,30.33,South,174,1.0,2.0,24,0.00,,OVC008,0.15,VWS V14.01,2013-05-02 18:58:00,
2013-05-02 15:03:00,60.8,25.7,30.33,NE,46,1.0,1.0,26,0.00,,OVC010,0.15,VWS V14.01,2013-05-02 19:03:00,
2013-05-02 15:08:00,60.9,29.3,30.33,NE,54,1.0,5.0,30,0.00,,OVC010,0.15,VWS V14.01,2013-05-02 19:08:00,
2013-05-02 15:13:00,60.8,30.0,30.33,ENE,67,0.0,5.0,31,0.00,,OVC010,0.15,VWS V14.01,2013-05-02 19:13:00,
2013-05-02 15:18:00,61.0,30.2,30.33,NNE,16,0.0,5.0,31,0.00,,OVC010,0.15,VWS V14.01,2013-05-02 19:18:00,
2013-05-02 15:23:00,61.2,30.4,30.33,NW,316,0.0,5.0,31,0.00,,OVC010,0.15,VWS V14.01,2013-05-02 19:23:00,
2013-05-02 15:28:00,61.5,30.6,30.33,ENE,61,1.0,5.0,31,0.00,,OVC010,0.15,VWS V14.01,2013-05-02 19:28:00,
2013-05-02 15:33:00,61.6,32.2,30.33,NE,53,2.0,3.0,33,0.00,,OVC010,0.15,VWS V14.01,2013-05-02 19:33:00,
2013-05-02 15:38:00,61.6,33.0,30.32,North,11,0.0,3.0,34,0.00,,OVC010,0.15,VWS V14.01,2013-05-02 19:38:00,
2013-05-02 15:43:00,61.7,33.1,30.32,ENE,77,1.0,3.0,34,0.00,,OVC010,0.15,VWS V14.01,2013-05-02 19:43:00,
2013-05-02 15:48:00,61.7,33.1,30.32,North,358,0.0,3.0,34,0.00,,OVC010,0.15,VWS V14.01,2013-05-02 19:48:00,
2013-05-02 15:53:00,61.7,33.1,30.32,NNE,28,0.0,3.0,34,0.00,,OVC010,0.15,VWS V14.01,2013-05-02 19:53:00,
2013-05-02 15:58:00,61.8,33.2,30.32,SSW,193,1.0,3.0,34,0.00,,OVC010,0.15,VWS V14.01,2013-05-02 19:58:00,
2013-05-02 16:03:00,61.8,33.9,30.32,East,85,1.0,3.0,35,0.00,,OVC012,0.15,VWS V14.01,2013-05-02 20:03:00,
2013-05-02 16:08:00,61.7,34.5,30.32,ENE,61,1.0,4.0,36,0.00,,OVC012,0.15,VWS V14.01,2013-05-02 20:08:00,
2013-05-02 16:13:00,61.3,33.4,30.32,ENE,60,1.0,4.0,35,0.00,,OVC012,0.15,VWS V14.01,2013-05-02 20:13:00,
2013-05-02 16:18:00,61.1,33.3,30.32,SE,135,1.0,4.0,35,0.00,,OVC012,0.15,VWS V14.01,2013-05-02 20:18:00,
2013-05-02 16:23:00,60.9,33.1,30.31,NE,51,0.0,4.0,35,0.00,,OVC012,0.15,VWS V14.01,2013-05-02 20:23:00,
2013-05-02 16:28:00,60.9,30.9,30.31,North,4,0.0,4.0,32,0.00,,OVC012,0.15,VWS V14.01,2013-05-02 20:28:00,
2013-05-02 16:33:00,61.0,31.7,30.31,ENE,73,2.0,3.0,33,0.00,,OVC012,0.15,VWS V14.01,2013-05-02 20:33:00,
2013-05-02 16:38:00,61.1,30.3,30.31,NW,315,0.0,3.0,31,0.00,,OVC012,0.15,VWS V14.01,2013-05-02 20:38:00,
2013-05-02 16:43:00,61.1,31.8,30.31,SW,234,1.0,3.0,33,0.00,,OVC012,0.15,VWS V14.01,2013-05-02 20:43:00,
2013-05-02 16:48:00,61.0,32.5,30.30,NW,319,0.0,4.0,34,0.00,,OVC012,0.15,VWS V14.01,2013-05-02 20:48:00,
2013-05-02 16:53:00,61.3,32.0,30.30,NW,319,0.0,4.0,33,0.00,,OVC012,0.15,VWS V14.01,2013-05-02 20:53:00,
2013-05-02 16:58:00,61.3,32.7,30.30,SW,219,1.0,4.0,34,0.00,,OVC012,0.15,VWS V14.01,2013-05-02 20:58:00,
2013-05-02 17:03:00,61.1,31.8,30.30,West,267,1.0,3.0,33,0.00,,OVC016,0.15,VWS V14.01,2013-05-02 21:03:00,
2013-05-02 17:08:00,61.0,30.2,30.30,West,265,0.0,3.0,31,0.00,,OVC016,0.15,VWS V14.01,2013-05-02 21:08:00,
2013-05-02 17:13:00,60.9,29.3,30.30,NE,49,0.0,3.0,30,0.00,,OVC016,0.15,VWS V14.01,2013-05-02 21:13:00,
2013-05-02 17:18:00,60.5,29.7,30.30,NE,45,1.0,6.0,31,0.00,,OVC016,0.15,VWS V14.01,2013-05-02 21:18:00,
2013-05-02 17:23:00,60.3,28.8,30.30,ENE,57,0.0,6.0,30,0.00,,OVC016,0.15,VWS V14.01,2013-05-02 21:23:00,
2013-05-02 17:28:00,60.1,27.8,30.29,NE,43,1.0,6.0,29,0.00,,OVC016,0.15,VWS V14.01,2013-05-02 21:28:00,
2013-05-02 17:33:00,60.1,27.8,30.29,ENE,61,0.0,2.0,29,0.00,,OVC016,0.15,VWS V14.01,2013-05-02 21:33:00,
2013-05-02 17:38:00,60.1,26.9,30.29,NNW,343,0.0,2.0,28,0.00,,OVC016,0.15,VWS V14.01,2013-05-02 21:38:00,
2013-05-02 17:43:00,60.1,27.8,30.29,ENE,78,0.0,2.0,29,0.00,,OVC016,0.15,VWS V14.01,2013-05-02 21:43:00,
2013-05-02 17:48:00,60.2,27.0,30.29,ENE,77,0.0,2.0,28,0.00,,OVC016,0.15,VWS V14.01,2013-05-02 21:48:00,
2013-05-02 17:53:00,60.2,27.9,30.30,NE,34,1.0,3.0,29,0.00,,OVC016,0.15,VWS V14.01,2013-05-02 21:53:00,
2013-05-02 17:58:00,60.2,27.9,30.30,NNE,20,0.0,3.0,29,0.00,,OVC016,0.15,VWS V14.01,2013-05-02 21:58:00,
2013-05-02 18:03:00,60.3,27.9,30.30,NNE,27,1.0,1.0,29,0.00,,OVC014,0.15,VWS V14.01,2013-05-02 22:03:00,
2013-05-02 18:08:00,60.3,29.6,30.29,NW,319,1.0,4.0,31,0.00,,OVC014,0.15,VWS V14.01,2013-05-02 22:08:00,
2013-05-02 18:13:00,60.2,29.5,30.29,East,80,1.0,4.0,31,0.00,,OVC014,0.15,VWS V14.01,2013-05-02 22:13:00,
2013-05-02 18:18:00,60.1,28.6,30.29,NE,44,2.0,4.0,30,0.00,,OVC014,0.15,VWS V14.01,2013-05-02 22:18:00,
2013-05-02 18:23:00,60.0,26.8,30.29,NE,49,0.0,4.0,28,0.00,,OVC014,0.15,VWS V14.01,2013-05-02 22:23:00,
2013-05-02 18:28:00,59.9,26.7,30.29,NE,55,0.0,4.0,28,0.00,,OVC014,0.15,VWS V14.01,2013-05-02 22:28:00,
2013-05-02 18:33:00,59.8,27.5,30.28,North,8,1.0,1.0,29,0.00,,OVC014,0.15,VWS V14.01,2013-05-02 22:33:00,
2013-05-02 18:38:00,59.9,27.6,30.28,NE,53,0.0,1.0,29,0.00,,OVC014,0.15,VWS V14.01,2013-05-02 22:38:00,
2013-05-02 18:43:00,59.8,25.8,30.28,NE,53,0.0,1.0,27,0.00,,OVC014,0.15,VWS V14.01,2013-05-02 22:43:00,
2013-05-02 18:48:00,59.8,24.9,30.28,NE,53,0.0,1.0,26,0.00,,OVC014,0.15,VWS V14.01,2013-05-02 22:48:00,
2013-05-02 18:53:00,59.8,24.9,30.28,NE,53,0.0,1.0,26,0.00,,OVC014,0.15,VWS V14.01,2013-05-02 22:53:00,
2013-05-02 18:58:00,59.7,22.9,30.28,NE,53,0.0,1.0,24,0.00,,OVC014,0.15,VWS V14.01,2013-05-02 22:58:00,
2013-05-02 19:03:00,59.5,24.6,30.28,NE,45,0.0,1.0,26,0.00,,OVC026,0.15,VWS V14.01,2013-05-02 23:03:00,
2013-05-02 19:08:00,59.4,24.5,30.28,NE,55,0.0,3.0,26,0.00,,OVC026,0.15,VWS V14.01,2013-05-02 23:08:00,
2013-05-02 19:13:00,59.3,24.4,30.28,ENE,57,0.0,3.0,26,0.00,,OVC026,0.15,VWS V14.01,2013-05-02 23:13:00,
2013-05-02 19:18:00,59.3,24.4,30.28,NE,53,0.0,3.0,26,0.00,,OVC026,0.15,VWS V14.01,2013-05-02 23:18:00,
2013-05-02 19:23:00,59.2,23.4,30.28,NE,53,0.0,3.0,25,0.00,,OVC026,0.15,VWS V14.01,2013-05-02 23:23:00,
2013-05-02 19:28:00,59.1,22.4,30.28,ENE,63,0.0,3.0,24,0.00,,OVC026,0.15,VWS V14.01,2013-05-02 23:28:00,
2013-05-02 19:33:00,59.1,22.4,30.28,NE,39,2.0,2.0,24,0.00,,OVC026,0.15,VWS V14.01,2013-05-02 23:33:00,
2013-05-02 19:38:00,59.0,22.3,30.28,NE,43,0.0,2.0,24,0.00,,OVC026,0.15,VWS V14.01,2013-05-02 23:38:00,
2013-05-02 19:43:00,59.0,21.3,30.28,NE,42,0.0,2.0,23,0.00,,OVC026,0.15,VWS V14.01,2013-05-02 23:43:00,
2013-05-02 19:48:00,58.9,20.1,30.29,NE,42,0.0,2.0,22,0.00,,OVC026,0.15,VWS V14.01,2013-05-02 23:48:00,
2013-05-02 19:53:00,58.8,20.1,30.29,NE,43,0.0,2.0,22,0.00,,OVC026,0.15,VWS V14.01,2013-05-02 23:53:00,
2013-05-02 19:58:00,58.7,20.0,30.29,NE,43,0.0,2.0,22,0.00,,OVC026,0.15,VWS V14.01,2013-05-02 23:58:00,
2013-05-02 20:03:00,58.7,18.9,30.29,NE,43,0.0,1.0,21,0.00,,OVC023,0.15,VWS V14.01,2013-05-03 00:03:00,
2013-05-02 20:08:00,58.6,16.5,30.30,NE,43,0.0,1.0,19,0.00,,OVC023,0.15,VWS V14.01,2013-05-03 00:08:00,
2013-05-02 20:13:00,58.5,16.4,30.30,NE,42,0.0,1.0,19,0.00,,OVC023,0.15,VWS V14.01,2013-05-03 00:13:00,
2013-05-02 20:18:00,58.4,15.1,30.30,NE,43,0.0,1.0,18,0.00,,OVC023,0.15,VWS V14.01,2013-05-03 00:18:00,
2013-05-02 20:23:00,58.3,13.7,30.30,NE,43,0.0,1.0,17,0.00,,OVC023,0.15,VWS V14.01,2013-05-03 00:23:00,
2013-05-02 20:28:00,58.2,13.6,30.30,NE,42,0.0,1.0,17,0.00,,OVC023,0.15,VWS V14.01,2013-05-03 00:28:00,
2013-05-02 20:33:00,58.1,12.2,30.30,NE,43,0.0,0.0,16,0.00,,OVC023,0.15,VWS V14.01,2013-05-03 00:33:00,
2013-05-02 20:38:00,58.0,12.1,30.30,NE,43,0.0,0.0,16,0.00,,OVC023,0.15,VWS V14.01,2013-05-03 00:38:00,
2013-05-02 20:43:00,58.0,13.4,30.30,ENE,63,0.0,2.0,17,0.00,,OVC023,0.15,VWS V14.01,2013-05-03 00:43:00,
2013-05-02 20:48:00,58.0,13.4,30.30,ENE,66,0.0,2.0,17,0.00,,OVC023,0.15,VWS V14.01,2013-05-03 00:48:00,
2013-05-02 20:53:00,57.9,13.4,30.30,ENE,66,0.0,2.0,17,0.00,,OVC023,0.15,VWS V14.01,2013-05-03 00:53:00,
2013-05-02 20:58:00,57.9,13.4,30.30,ENE,65,0.0,2.0,17,0.00,,OVC023,0.15,VWS V14.01,2013-05-03 00:58:00,
2013-05-02 21:03:00,57.9,13.4,30.30,ENE,65,0.0,0.0,17,0.00,,OVC023,0.15,VWS V14.01,2013-05-03 01:03:00,
2013-05-02 21:08:00,57.8,14.6,30.30,ENE,65,0.0,1.0,18,0.00,,OVC023,0.15,VWS V14.01,2013-05-03 01:08:00,
2013-05-02 21:13:00,57.8,14.6,30.31,ENE,65,0.0,1.0,18,0.00,,OVC023,0.15,VWS V14.01,2013-05-03 01:13:00,
2013-05-02 21:18:00,57.8,15.8,30.31,ENE,65,0.0,1.0,19,0.00,,OVC023,0.15,VWS V14.01,2013-05-03 01:18:00,
2013-05-02 21:23:00,57.8,14.6,30.31,ENE,65,0.0,1.0,18,0.00,,OVC023,0.15,VWS V14.01,2013-05-03 01:23:00,
2013-05-02 21:28:00,57.8,15.8,30.31,ENE,63,0.0,1.0,19,0.00,,OVC023,0.15,VWS V14.01,2013-05-03 01:28:00,
2013-05-02 21:33:00,57.7,15.8,30.31,ENE,66,1.0,2.0,19,0.00,,OVC023,0.15,VWS V14.01,2013-05-03 01:33:00,
2013-05-02 21:38:00,57.7,15.8,30.31,NE,39,0.0,2.0,19,0.00,,OVC023,0.15,VWS V14.01,2013-05-03 01:38:00,
2013-05-02 21:43:00,57.7,15.8,30.31,NE,51,0.0,3.0,19,0.00,,OVC023,0.15,VWS V14.01,2013-05-03 01:43:00,
2013-05-02 21:48:00,57.6,16.9,30.31,ENE,61,0.0,3.0,20,0.00,,OVC023,0.15,VWS V14.01,2013-05-03 01:48:00,
2013-05-02 21:53:00,57.6,15.7,30.31,ENE,61,0.0,3.0,19,0.00,,OVC023,0.15,VWS V14.01,2013-05-03 01:53:00,
2013-05-02 21:58:00,57.6,15.7,30.32,ENE,61,0.0,3.0,19,0.00,,OVC023,0.15,VWS V14.01,2013-05-03 01:58:00,
2013-05-02 22:03:00,57.5,14.4,30.32,WSW,238,0.0,1.0,18,0.00,,OVC023,0.15,VWS V14.01,2013-05-03 02:03:00,
2013-05-02 22:08:00,57.5,14.4,30.32,SSW,211,0.0,1.0,18,0.00,,OVC023,0.15,VWS V14.01,2013-05-03 02:08:00,
2013-05-02 22:13:00,57.4,14.3,30.32,ESE,110,0.0,1.0,18,0.00,,OVC023,0.15,VWS V14.01,2013-05-03 02:13:00,
2013-05-02 22:18:00,57.4,13.0,30.32,NW,310,0.0,1.0,17,0.00,,OVC023,0.15,VWS V14.01,2013-05-03 02:18:00,
2013-05-02 22:23:00,57.3,11.5,30.32,ENE,71,1.0,2.0,16,0.00,,OVC023,0.15,VWS V14.01,2013-05-03 02:23:00,
2013-05-02 22:28:00,57.1,9.9,30.32,ENE,63,0.0,2.0,15,0.00,,OVC023,0.15,VWS V14.01,2013-05-03 02:28:00,
2013-05-02 22:33:00,56.9,8.2,30.31,ESE,105,0.0,2.0,14,0.00,,OVC023,0.15,VWS V14.01,2013-05-03 02:33:00,
2013-05-02 22:38:00,56.7,6.4,30.31,NE,53,0.0,2.0,13,0.00,,OVC023,0.15,VWS V14.01,2013-05-03 02:38:00,
2013-05-02 22:43:00,56.6,2.7,30.31,NNE,26,0.0,2.0,11,0.00,,OVC023,0.15,VWS V14.01,2013-05-03 02:43:00,
2013-05-02 22:48:00,56.5,0.6,30.31,NE,51,0.0,2.0,10,0.00,,OVC023,0.15,VWS V14.01,2013-05-03 02:48:00,
2013-05-02 22:54:00,56.4,-1.7,30.31,North,4,0.0,2.0,9,0.00,,OVC023,0.15,VWS V14.01,2013-05-03 02:54:00,
2013-05-02 22:59:00,56.3,-4.3,30.31,North,4,0.0,2.0,8,0.00,,OVC023,0.15,VWS V14.01,2013-05-03 02:59:00,
2013-05-02 23:04:00,56.2,-4.3,30.31,North,11,0.0,1.0,8,0.00,,OVC028,0.15,VWS V14.01,2013-05-03 03:04:00,
2013-05-02 23:09:00,56.1,-7.2,30.30,NE,40,2.0,2.0,7,0.00,,OVC028,0.15,VWS V14.01,2013-05-03 03:09:00,
2013-05-02 23:14:00,56.1,-7.2,30.30,NE,48,0.0,4.0,7,0.00,,OVC028,0.15,VWS V14.01,2013-05-03 03:14:00,
2013-05-02 23:19:00,56.1,-7.2,30.30,ESE,103,0.0,4.0,7,0.00,,OVC028,0.15,VWS V14.01,2013-05-03 03:19:00,
2013-05-02 23:24:00,56.1,-7.2,30.30,NE,53,1.0,4.0,7,0.00,,OVC028,0.15,VWS V14.01,2013-05-03 03:24:00,
2013-05-02 23:29:00,56.1,-7.2,30.30,NE,53,0.0,4.0,7,0.00,,OVC028,0.15,VWS V14.01,2013-05-03 03:29:00,
2013-05-02 23:34:00,56.1,-7.2,30.30,NE,54,0.0,1.0,7,0.00,,OVC028,0.15,VWS V14.01,2013-05-03 03:34:00,
2013-05-02 23:39:00,56.1,-10.3,30.30,NE,54,0.0,1.0,6,0.00,,OVC028,0.15,VWS V14.01,2013-05-03 03:39:00,
2013-05-02 23:44:00,56.0,-10.4,30.30,NE,54,0.0,1.0,6,0.00,,OVC028,0.15,VWS V14.01,2013-05-03 03:44:00,
2013-05-02 23:49:00,56.0,-10.4,30.30,NE,53,0.0,1.0,6,0.00,,OVC028,0.15,VWS V14.01,2013-05-03 03:49:00,
2013-05-02 23:54:00,56.1,-10.3,30.30,NE,36,1.0,2.0,6,0.00,,OVC028,0.15,VWS V14.01,2013-05-03 03:54:00,
2013-05-02 23:59:00,56.1,-10.3,30.30,NE,41,0.0,2.0,6,0.00,,OVC028,0.15,VWS V14.01,2013-05-03 03:59:00,